sensor_id;sensor_type;location;lat;lon;timestamp;pressure;altitude;pressure_sealevel;temperature;humidity
71974;BME280;59840;52.122;5.404;2023-07-31T00:01:19;101078.44;;;15.58;100.00
71974;BME280;59840;52.122;5.404;2023-07-31T00:03:46;101070.19;;;15.54;100.00
71974;BME280;59840;52.122;5.404;2023-07-31T00:06:13;101069.91;;;15.51;100.00
71974;BME280;59840;52.122;5.404;2023-07-31T00:08:45;101072.06;;;15.49;100.00
71974;BME280;59840;52.122;5.404;2023-07-31T00:11:15;101059.53;;;15.49;100.00
71974;BME280;59840;52.122;5.404;2023-07-31T00:13:44;101053.16;;;15.50;100.00
71974;BME280;59840;52.122;5.404;2023-07-31T00:16:14;101038.53;;;15.53;100.00
71974;BME280;59840;52.122;5.404;2023-07-31T00:18:47;101030.00;;;15.56;100.00
71974;BME280;59840;52.122;5.404;2023-07-31T00:21:23;101034.50;;;15.60;100.00
71974;BME280;59840;52.122;5.404;2023-07-31T00:23:52;101032.09;;;15.64;100.00
71974;BME280;59840;52.122;5.404;2023-07-31T00:26:21;101029.69;;;15.67;100.00
71974;BME280;59840;52.122;5.404;2023-07-31T00:28:51;101028.94;;;15.62;100.00
71974;BME280;59840;52.122;5.404;2023-07-31T00:31:21;101032.63;;;15.66;100.00
71974;BME280;59840;52.122;5.404;2023-07-31T00:33:54;101031.28;;;15.68;100.00
71974;BME280;59840;52.122;5.404;2023-07-31T00:36:21;101026.78;;;15.69;100.00
71974;BME280;59840;52.122;5.404;2023-07-31T00:38:53;101035.78;;;15.73;100.00
71974;BME280;59840;52.122;5.404;2023-07-31T00:41:22;101017.19;;;15.73;100.00
71974;BME280;59840;52.122;5.404;2023-07-31T00:43:52;101017.69;;;15.75;100.00
71974;BME280;59840;52.122;5.404;2023-07-31T00:46:25;101017.16;;;15.78;100.00
71974;BME280;59840;52.122;5.404;2023-07-31T00:48:52;101007.00;;;15.85;100.00
71974;BME280;59840;52.122;5.404;2023-07-31T00:51:19;101013.91;;;15.91;100.00
71974;BME280;59840;52.122;5.404;2023-07-31T00:53:47;101012.50;;;15.99;100.00
71974;BME280;59840;52.122;5.404;2023-07-31T00:56:16;101002.91;;;16.03;100.00
71974;BME280;59840;52.122;5.404;2023-07-31T00:58:43;101009.25;;;16.07;100.00
71974;BME280;59840;52.122;5.404;2023-07-31T01:01:10;101003.09;;;16.12;100.00
71974;BME280;59840;52.122;5.404;2023-07-31T01:03:36;101003.34;;;16.15;100.00
71974;BME280;59840;52.122;5.404;2023-07-31T01:06:36;101006.53;;;16.17;100.00
71974;BME280;59840;52.122;5.404;2023-07-31T01:09:13;101007.06;;;16.19;100.00
71974;BME280;59840;52.122;5.404;2023-07-31T01:11:57;101001.19;;;16.22;100.00
71974;BME280;59840;52.122;5.404;2023-07-31T01:14:30;100995.06;;;16.22;100.00
71974;BME280;59840;52.122;5.404;2023-07-31T01:16:57;100997.44;;;16.23;100.00
71974;BME280;59840;52.122;5.404;2023-07-31T01:19:25;101021.94;;;16.25;100.00
71974;BME280;59840;52.122;5.404;2023-07-31T01:27:23;101007.81;;;16.25;100.00
71974;BME280;59840;52.122;5.404;2023-07-31T01:30:09;101005.72;;;16.22;100.00
71974;BME280;59840;52.122;5.404;2023-07-31T01:32:42;101008.38;;;16.22;100.00
71974;BME280;59840;52.122;5.404;2023-07-31T01:35:10;101003.56;;;16.24;100.00
71974;BME280;59840;52.122;5.404;2023-07-31T01:37:37;101003.56;;;16.24;100.00
71974;BME280;59840;52.122;5.404;2023-07-31T01:40:06;101005.16;;;16.25;100.00
71974;BME280;59840;52.122;5.404;2023-07-31T01:42:34;101008.34;;;16.27;100.00
71974;BME280;59840;52.122;5.404;2023-07-31T01:45:01;101006.16;;;16.29;100.00
71974;BME280;59840;52.122;5.404;2023-07-31T01:47:33;101001.16;;;16.27;100.00
71974;BME280;59840;52.122;5.404;2023-07-31T01:49:59;101003.81;;;16.27;100.00
71974;BME280;59840;52.122;5.404;2023-07-31T01:52:26;100997.69;;;16.27;100.00
71974;BME280;59840;52.122;5.404;2023-07-31T01:54:55;101000.34;;;16.27;100.00
71974;BME280;59840;52.122;5.404;2023-07-31T01:57:23;100995.81;;;16.27;100.00
71974;BME280;59840;52.122;5.404;2023-07-31T01:59:50;100990.78;;;16.26;100.00
71974;BME280;59840;52.122;5.404;2023-07-31T02:02:17;100993.44;;;16.26;100.00
71974;BME280;59840;52.122;5.404;2023-07-31T02:04:44;100991.84;;;16.25;100.00
71974;BME280;59840;52.122;5.404;2023-07-31T02:07:11;100991.84;;;16.25;100.00
71974;BME280;59840;52.122;5.404;2023-07-31T02:09:38;100983.06;;;16.24;100.00
71974;BME280;59840;52.122;5.404;2023-07-31T02:12:12;100970.81;;;16.23;100.00
71974;BME280;59840;52.122;5.404;2023-07-31T02:14:40;100969.00;;;16.19;100.00
71974;BME280;59840;52.122;5.404;2023-07-31T02:17:12;100966.88;;;16.16;100.00
71974;BME280;59840;52.122;5.404;2023-07-31T02:19:43;100973.28;;;16.15;100.00
71974;BME280;59840;52.122;5.404;2023-07-31T02:22:10;100957.84;;;16.12;100.00
71974;BME280;59840;52.122;5.404;2023-07-31T02:24:37;100957.84;;;16.12;100.00
71974;BME280;59840;52.122;5.404;2023-07-31T02:27:04;100950.94;;;16.11;100.00
71974;BME280;59840;52.122;5.404;2023-07-31T02:29:31;100961.59;;;16.11;100.00
71974;BME280;59840;52.122;5.404;2023-07-31T02:32:00;100954.69;;;16.09;100.00
71974;BME280;59840;52.122;5.404;2023-07-31T02:34:29;100948.56;;;16.09;100.00
71974;BME280;59840;52.122;5.404;2023-07-31T02:36:55;100960.00;;;16.09;100.00
71974;BME280;59840;52.122;5.404;2023-07-31T02:39:22;100954.69;;;16.09;100.00
71974;BME280;59840;52.122;5.404;2023-07-31T02:41:49;100954.69;;;16.09;100.00
71974;BME280;59840;52.122;5.404;2023-07-31T02:44:16;100962.66;;;16.09;100.00
71974;BME280;59840;52.122;5.404;2023-07-31T02:46:42;100965.31;;;16.09;100.00
71974;BME280;59840;52.122;5.404;2023-07-31T02:49:09;100956.81;;;16.07;100.00
71974;BME280;59840;52.122;5.404;2023-07-31T02:51:38;100948.84;;;16.07;100.00
71974;BME280;59840;52.122;5.404;2023-07-31T02:54:05;100938.97;;;16.08;100.00
71974;BME280;59840;52.122;5.404;2023-07-31T02:56:32;100940.56;;;16.09;100.00
71974;BME280;59840;52.122;5.404;2023-07-31T02:58:59;100932.88;;;16.07;100.00
71974;BME280;59840;52.122;5.404;2023-07-31T03:01:26;100932.88;;;16.07;100.00
71974;BME280;59840;52.122;5.404;2023-07-31T03:03:52;100937.13;;;16.08;100.00
71974;BME280;59840;52.122;5.404;2023-07-31T03:06:19;100931.78;;;16.08;100.00
71974;BME280;59840;52.122;5.404;2023-07-31T03:08:46;100931.78;;;16.08;100.00
71974;BME280;59840;52.122;5.404;2023-07-31T03:11:13;100933.38;;;16.09;100.00
71974;BME280;59840;52.122;5.404;2023-07-31T03:13:40;100940.56;;;16.09;100.00
71974;BME280;59840;52.122;5.404;2023-07-31T03:16:06;100926.47;;;16.08;100.00
71974;BME280;59840;52.122;5.404;2023-07-31T03:18:35;100938.97;;;16.08;100.00
71974;BME280;59840;52.122;5.404;2023-07-31T03:21:02;100936.31;;;16.08;100.00
71974;BME280;59840;52.122;5.404;2023-07-31T03:23:29;100931.78;;;16.08;100.00
71974;BME280;59840;52.122;5.404;2023-07-31T03:26:00;100932.34;;;16.05;100.00
71974;BME280;59840;52.122;5.404;2023-07-31T03:28:27;100933.41;;;16.04;100.00
71974;BME280;59840;52.122;5.404;2023-07-31T03:30:54;100926.22;;;16.05;100.00
71974;BME280;59840;52.122;5.404;2023-07-31T03:33:21;100926.50;;;16.03;100.00
71974;BME280;59840;52.122;5.404;2023-07-31T03:35:47;100929.16;;;16.03;100.00
71974;BME280;59840;52.122;5.404;2023-07-31T03:38:14;100928.38;;;16.03;100.00
71974;BME280;59840;52.122;5.404;2023-07-31T03:40:41;100922.00;;;15.99;100.00
71974;BME280;59840;52.122;5.404;2023-07-31T03:43:08;100928.66;;;16.01;100.00
71974;BME280;59840;52.122;5.404;2023-07-31T03:45:34;100918.28;;;16.00;100.00
71974;BME280;59840;52.122;5.404;2023-07-31T03:48:02;100924.94;;;15.97;100.00
71974;BME280;59840;52.122;5.404;2023-07-31T03:50:29;100918.31;;;15.95;100.00
71974;BME280;59840;52.122;5.404;2023-07-31T03:52:57;100923.34;;;15.96;100.00
71974;BME280;59840;52.122;5.404;2023-07-31T03:55:24;100923.34;;;15.96;100.00
71974;BME280;59840;52.122;5.404;2023-07-31T03:57:51;100926.28;;;15.95;100.00
71974;BME280;59840;52.122;5.404;2023-07-31T04:00:18;100917.03;;;15.92;100.00
71974;BME280;59840;52.122;5.404;2023-07-31T04:02:44;100918.63;;;15.93;100.00
71974;BME280;59840;52.122;5.404;2023-07-31T04:05:11;100918.31;;;15.95;100.00
71974;BME280;59840;52.122;5.404;2023-07-31T04:07:43;100917.81;;;15.93;100.00
71974;BME280;59840;52.122;5.404;2023-07-31T04:10:09;100907.72;;;15.90;100.00
71974;BME280;59840;52.122;5.404;2023-07-31T04:12:39;100908.28;;;15.87;100.00
71974;BME280;59840;52.122;5.404;2023-07-31T04:15:08;100901.38;;;15.86;100.00
71974;BME280;59840;52.122;5.404;2023-07-31T04:17:35;100897.41;;;15.83;100.00
71974;BME280;59840;52.122;5.404;2023-07-31T04:20:02;100888.91;;;15.81;100.00
71974;BME280;59840;52.122;5.404;2023-07-31T04:22:29;100892.63;;;15.80;100.00
71974;BME280;59840;52.122;5.404;2023-07-31T04:24:55;100881.19;;;15.80;100.00
71974;BME280;59840;52.122;5.404;2023-07-31T04:27:22;100877.22;;;15.77;100.00
71974;BME280;59840;52.122;5.404;2023-07-31T04:29:49;100883.84;;;15.80;100.00
71974;BME280;59840;52.122;5.404;2023-07-31T04:32:15;100879.59;;;15.79;100.00
71974;BME280;59840;52.122;5.404;2023-07-31T04:34:43;100882.53;;;15.77;100.00
71974;BME280;59840;52.122;5.404;2023-07-31T04:37:10;100882.53;;;15.77;100.00
71974;BME280;59840;52.122;5.404;2023-07-31T04:39:36;100893.19;;;15.77;100.00
71974;BME280;59840;52.122;5.404;2023-07-31T04:42:03;100892.66;;;15.75;100.00
71974;BME280;59840;52.122;5.404;2023-07-31T04:44:30;100898.50;;;15.77;100.00
71974;BME280;59840;52.122;5.404;2023-07-31T04:46:57;100890.00;;;15.75;100.00
71974;BME280;59840;52.122;5.404;2023-07-31T04:49:24;100884.69;;;15.75;100.00
71974;BME280;59840;52.122;5.404;2023-07-31T04:51:50;100888.41;;;15.74;100.00
71974;BME280;59840;52.122;5.404;2023-07-31T04:54:17;100884.69;;;15.75;100.00
71974;BME280;59840;52.122;5.404;2023-07-31T04:56:43;100879.34;;;15.75;100.00
71974;BME280;59840;52.122;5.404;2023-07-31T04:59:10;100877.25;;;15.72;100.00
71974;BME280;59840;52.122;5.404;2023-07-31T05:01:37;100867.94;;;15.69;100.00
71974;BME280;59840;52.122;5.404;2023-07-31T05:04:03;100867.94;;;15.69;100.00
71974;BME280;59840;52.122;5.404;2023-07-31T05:06:30;100866.09;;;15.70;100.00
71974;BME280;59840;52.122;5.404;2023-07-31T05:08:59;100856.00;;;15.67;100.00
71974;BME280;59840;52.122;5.404;2023-07-31T05:11:26;100860.25;;;15.68;100.00
71974;BME280;59840;52.122;5.404;2023-07-31T05:13:52;100856.00;;;15.67;100.00
71974;BME280;59840;52.122;5.404;2023-07-31T05:16:19;100857.59;;;15.68;100.00
71974;BME280;59840;52.122;5.404;2023-07-31T05:18:48;100859.97;;;15.69;100.00
71974;BME280;59840;52.122;5.404;2023-07-31T05:21:14;100860.81;;;15.65;100.00
71974;BME280;59840;52.122;5.404;2023-07-31T05:23:45;100865.06;;;15.66;100.00
71974;BME280;59840;52.122;5.404;2023-07-31T05:26:14;100853.63;;;15.65;100.00
71974;BME280;59840;52.122;5.404;2023-07-31T05:28:44;100852.81;;;15.65;100.00
71974;BME280;59840;52.122;5.404;2023-07-31T05:31:20;100855.22;;;15.66;100.00
71974;BME280;59840;52.122;5.404;2023-07-31T05:33:49;100852.31;;;15.63;100.00
71974;BME280;59840;52.122;5.404;2023-07-31T05:36:17;100841.94;;;15.61;100.00
71974;BME280;59840;52.122;5.404;2023-07-31T05:38:49;100848.06;;;15.62;100.00
71974;BME280;59840;52.122;5.404;2023-07-31T05:41:16;100838.78;;;15.59;100.00
71974;BME280;59840;52.122;5.404;2023-07-31T05:43:43;100843.31;;;15.59;100.00
71974;BME280;59840;52.122;5.404;2023-07-31T05:46:09;100830.28;;;15.57;100.00
71974;BME280;59840;52.122;5.404;2023-07-31T05:48:39;100829.72;;;15.60;100.00
71974;BME280;59840;52.122;5.404;2023-07-31T05:51:06;100825.50;;;15.59;100.00
71974;BME280;59840;52.122;5.404;2023-07-31T05:53:33;100823.91;;;15.58;100.00
71974;BME280;59840;52.122;5.404;2023-07-31T05:56:00;100827.34;;;15.59;100.00
71974;BME280;59840;52.122;5.404;2023-07-31T05:58:26;100820.38;;;15.63;100.00
71974;BME280;59840;52.122;5.404;2023-07-31T06:00:53;100811.34;;;15.64;100.00
71974;BME280;59840;52.122;5.404;2023-07-31T06:03:20;100815.84;;;15.63;100.00
71974;BME280;59840;52.122;5.404;2023-07-31T06:05:46;100808.41;;;15.65;100.00
71974;BME280;59840;52.122;5.404;2023-07-31T06:08:13;100812.66;;;15.66;100.00
71974;BME280;59840;52.122;5.404;2023-07-31T06:10:40;100816.38;;;15.65;100.00
71974;BME280;59840;52.122;5.404;2023-07-31T06:13:07;100803.34;;;15.64;100.00
71974;BME280;59840;52.122;5.404;2023-07-31T06:15:33;100808.69;;;15.64;100.00
71974;BME280;59840;52.122;5.404;2023-07-31T06:18:00;100802.81;;;15.67;100.00
71974;BME280;59840;52.122;5.404;2023-07-31T06:20:28;100802.81;;;15.67;100.00
71974;BME280;59840;52.122;5.404;2023-07-31T06:22:55;100803.88;;;15.66;100.00
71974;BME280;59840;52.122;5.404;2023-07-31T06:25:22;100804.38;;;15.68;100.00
71974;BME280;59840;52.122;5.404;2023-07-31T06:27:49;100795.63;;;15.67;100.00
71974;BME280;59840;52.122;5.404;2023-07-31T06:30:17;100799.88;;;15.68;100.00
71974;BME280;59840;52.122;5.404;2023-07-31T06:32:44;100792.69;;;15.69;100.00
71974;BME280;59840;52.122;5.404;2023-07-31T06:35:10;100793.19;;;15.71;100.00
71974;BME280;59840;52.122;5.404;2023-07-31T06:37:37;100787.06;;;15.70;100.00
71974;BME280;59840;52.122;5.404;2023-07-31T06:40:07;100782.00;;;15.74;100.00
71974;BME280;59840;52.122;5.404;2023-07-31T06:42:35;100780.66;;;15.77;100.00
71974;BME280;59840;52.122;5.404;2023-07-31T06:45:05;100770.25;;;15.80;100.00
71974;BME280;59840;52.122;5.404;2023-07-31T06:47:32;100777.16;;;15.81;100.00
71974;BME280;59840;52.122;5.404;2023-07-31T06:49:59;100768.59;;;15.84;100.00
71974;BME280;59840;52.122;5.404;2023-07-31T06:52:25;100767.53;;;15.85;100.00
71974;BME280;59840;52.122;5.404;2023-07-31T06:55:17;100763.81;;;15.86;100.00
71974;BME280;59840;52.122;5.404;2023-07-31T06:57:54;100765.38;;;15.87;100.00
71974;BME280;59840;52.122;5.404;2023-07-31T07:00:22;100765.63;;;15.91;100.00
71974;BME280;59840;52.122;5.404;2023-07-31T07:02:49;100759.44;;;15.95;100.00
71974;BME280;59840;52.122;5.404;2023-07-31T07:05:16;100762.31;;;15.99;100.00
71974;BME280;59840;52.122;5.404;2023-07-31T07:07:43;100758.59;;;16.00;100.00
71974;BME280;59840;52.122;5.404;2023-07-31T07:10:10;100754.06;;;16.00;100.00
71974;BME280;59840;52.122;5.404;2023-07-31T07:12:37;100753.50;;;16.03;100.00
71974;BME280;59840;52.122;5.404;2023-07-31T07:15:04;100752.94;;;16.06;100.00
71974;BME280;59840;52.122;5.404;2023-07-31T07:17:31;100749.19;;;16.07;100.00
71974;BME280;59840;52.122;5.404;2023-07-31T07:19:58;100747.84;;;16.10;100.00
71974;BME280;59840;52.122;5.404;2023-07-31T07:22:25;100759.81;;;16.13;100.00
71974;BME280;59840;52.122;5.404;2023-07-31T07:24:54;100747.28;;;16.13;100.00
71974;BME280;59840;52.122;5.404;2023-07-31T07:27:20;100754.47;;;16.13;100.00
71974;BME280;59840;52.122;5.404;2023-07-31T07:29:47;100749.66;;;16.15;100.00
71974;BME280;59840;52.122;5.404;2023-07-31T07:32:16;100763.50;;;16.17;100.00
71974;BME280;59840;52.122;5.404;2023-07-31T07:34:43;100750.69;;;16.19;100.00
71974;BME280;59840;52.122;5.404;2023-07-31T07:37:11;100749.63;;;16.20;100.00
71974;BME280;59840;52.122;5.404;2023-07-31T07:39:37;100750.13;;;16.22;100.00
71974;BME280;59840;52.122;5.404;2023-07-31T07:42:04;100750.91;;;16.22;100.00
71974;BME280;59840;52.122;5.404;2023-07-31T07:44:30;100747.69;;;16.25;100.00
71974;BME280;59840;52.122;5.404;2023-07-31T07:46:57;100739.69;;;16.25;100.00
71974;BME280;59840;52.122;5.404;2023-07-31T07:49:24;100742.09;;;16.27;100.00
71974;BME280;59840;52.122;5.404;2023-07-31T07:51:53;100727.69;;;16.28;100.00
71974;BME280;59840;52.122;5.404;2023-07-31T07:54:20;100732.72;;;16.29;100.00
71974;BME280;59840;52.122;5.404;2023-07-31T07:56:47;100737.19;;;16.34;100.00
71974;BME280;59840;52.122;5.404;2023-07-31T07:59:14;100733.66;;;16.38;100.00
71974;BME280;59840;52.122;5.404;2023-07-31T08:01:41;100737.63;;;16.41;100.00
71974;BME280;59840;52.122;5.404;2023-07-31T08:04:07;100733.91;;;16.42;100.00
71974;BME280;59840;52.122;5.404;2023-07-31T08:06:34;100735.47;;;16.43;100.00
71974;BME280;59840;52.122;5.404;2023-07-31T08:09:00;100727.22;;;16.45;100.00
71974;BME280;59840;52.122;5.404;2023-07-31T08:11:32;100725.06;;;16.47;100.00
71974;BME280;59840;52.122;5.404;2023-07-31T08:13:59;100716.78;;;16.48;100.00
71974;BME280;59840;52.122;5.404;2023-07-31T08:16:26;100718.06;;;16.51;100.00
71974;BME280;59840;52.122;5.404;2023-07-31T08:18:53;100717.78;;;16.52;100.00
71974;BME280;59840;52.122;5.404;2023-07-31T08:21:21;100712.69;;;16.56;100.00
71974;BME280;59840;52.122;5.404;2023-07-31T08:23:48;100725.16;;;16.60;100.00
71974;BME280;59840;52.122;5.404;2023-07-31T08:26:18;100717.09;;;16.65;100.00
71974;BME280;59840;52.122;5.404;2023-07-31T08:28:45;100714.94;;;16.67;100.00
71974;BME280;59840;52.122;5.404;2023-07-31T08:31:12;100713.84;;;16.68;100.00
71974;BME280;59840;52.122;5.404;2023-07-31T08:33:39;100701.56;;;16.72;100.00
71974;BME280;59840;52.122;5.404;2023-07-31T08:36:06;100707.09;;;16.76;100.00
71974;BME280;59840;52.122;5.404;2023-07-31T08:38:33;100706.81;;;16.78;100.00
71974;BME280;59840;52.122;5.404;2023-07-31T08:41:00;100702.00;;;16.80;100.00
71974;BME280;59840;52.122;5.404;2023-07-31T08:43:27;100706.44;;;16.84;100.00
71974;BME280;59840;52.122;5.404;2023-07-31T08:45:54;100702.63;;;16.90;100.00
71974;BME280;59840;52.122;5.404;2023-07-31T08:48:22;100696.44;;;16.95;100.00
71974;BME280;59840;52.122;5.404;2023-07-31T08:50:51;100703.34;;;16.96;100.00
71974;BME280;59840;52.122;5.404;2023-07-31T08:53:18;100704.34;;;17.00;100.00
71974;BME280;59840;52.122;5.404;2023-07-31T08:55:45;100702.69;;;17.04;100.00
71974;BME280;59840;52.122;5.404;2023-07-31T08:58:13;100700.00;;;17.04;100.00
71974;BME280;59840;52.122;5.404;2023-07-31T09:00:41;100702.19;;;17.02;100.00
71974;BME280;59840;52.122;5.404;2023-07-31T09:03:21;100710.09;;;17.07;100.00
71974;BME280;59840;52.122;5.404;2023-07-31T09:05:49;100716.72;;;17.09;100.00
71974;BME280;59840;52.122;5.404;2023-07-31T09:08:18;100710.81;;;17.13;100.00
71974;BME280;59840;52.122;5.404;2023-07-31T09:10:46;100701.75;;;17.14;100.00
71974;BME280;59840;52.122;5.404;2023-07-31T09:13:13;100708.66;;;17.15;100.00
71974;BME280;59840;52.122;5.404;2023-07-31T09:15:43;100712.63;;;17.17;100.00
71974;BME280;59840;52.122;5.404;2023-07-31T09:18:10;100708.88;;;17.18;100.00
71974;BME280;59840;52.122;5.404;2023-07-31T09:20:37;100703.03;;;17.16;100.00
71974;BME280;59840;52.122;5.404;2023-07-31T09:23:08;100697.28;;;17.09;100.00
71974;BME280;59840;52.122;5.404;2023-07-31T09:25:36;100701.03;;;17.08;100.00
71974;BME280;59840;52.122;5.404;2023-07-31T09:28:07;100697.56;;;17.07;100.00
71974;BME280;59840;52.122;5.404;2023-07-31T09:30:49;100699.72;;;17.05;100.00
71974;BME280;59840;52.122;5.404;2023-07-31T09:33:17;100696.19;;;17.10;100.00
71974;BME280;59840;52.122;5.404;2023-07-31T09:35:43;100689.50;;;17.13;100.00
71974;BME280;59840;52.122;5.404;2023-07-31T09:38:12;100695.03;;;17.16;100.00
71974;BME280;59840;52.122;5.404;2023-07-31T09:40:40;100688.91;;;17.16;100.00
71974;BME280;59840;52.122;5.404;2023-07-31T09:43:09;100692.28;;;17.21;100.00
71974;BME280;59840;52.122;5.404;2023-07-31T09:45:43;100688.47;;;17.27;100.00
71974;BME280;59840;52.122;5.404;2023-07-31T09:48:17;100689.94;;;17.33;100.00
71974;BME280;59840;52.122;5.404;2023-07-31T09:50:46;100685.81;;;17.41;100.00
71974;BME280;59840;52.122;5.404;2023-07-31T09:53:13;100682.25;;;17.46;100.00
71974;BME280;59840;52.122;5.404;2023-07-31T09:55:41;100686.31;;;17.43;100.00
71974;BME280;59840;52.122;5.404;2023-07-31T09:58:10;100680.69;;;17.45;100.00
71974;BME280;59840;52.122;5.404;2023-07-31T10:00:37;100686.31;;;17.43;100.00
71974;BME280;59840;52.122;5.404;2023-07-31T10:03:06;100687.91;;;17.44;100.00
71974;BME280;59840;52.122;5.404;2023-07-31T10:05:34;100683.84;;;17.47;100.00
71974;BME280;59840;52.122;5.404;2023-07-31T10:08:01;100683.69;;;17.57;100.00
71974;BME280;59840;52.122;5.404;2023-07-31T10:10:27;100679.13;;;17.57;100.00
71974;BME280;59840;52.122;5.404;2023-07-31T10:12:56;100671.91;;;17.58;100.00
71974;BME280;59840;52.122;5.404;2023-07-31T10:15:23;100681.00;;;17.57;100.00
71974;BME280;59840;52.122;5.404;2023-07-31T10:17:51;100691.69;;;17.57;100.00
71974;BME280;59840;52.122;5.404;2023-07-31T10:20:18;100689.59;;;17.54;100.00
71974;BME280;59840;52.122;5.404;2023-07-31T10:22:45;100696.50;;;17.55;100.00
71974;BME280;59840;52.122;5.404;2023-07-31T10:25:12;100691.97;;;17.55;100.00
71974;BME280;59840;52.122;5.404;2023-07-31T10:27:39;100698.09;;;17.56;100.00
71974;BME280;59840;52.122;5.404;2023-07-31T10:30:09;100686.44;;;17.52;100.00
71974;BME280;59840;52.122;5.404;2023-07-31T10:32:38;100689.97;;;17.47;100.00
71974;BME280;59840;52.122;5.404;2023-07-31T10:35:07;100695.31;;;17.47;100.00
71974;BME280;59840;52.122;5.404;2023-07-31T10:37:40;100689.19;;;17.47;100.00
71974;BME280;59840;52.122;5.404;2023-07-31T10:40:16;100685.44;;;17.48;100.00
71974;BME280;59840;52.122;5.404;2023-07-31T10:45:14;100682.31;;;17.59;100.00
71974;BME280;59840;52.122;5.404;2023-07-31T10:47:58;100675.09;;;17.60;100.00
71974;BME280;59840;52.122;5.404;2023-07-31T10:50:25;100681.16;;;17.65;100.00
71974;BME280;59840;52.122;5.404;2023-07-31T10:52:54;100686.88;;;17.72;100.00
71974;BME280;59840;52.122;5.404;2023-07-31T10:55:26;100683.13;;;17.73;100.00
71974;BME280;59840;52.122;5.404;2023-07-31T10:57:58;100683.03;;;17.79;100.00
71974;BME280;59840;52.122;5.404;2023-07-31T11:00:31;100683.31;;;17.77;100.00
71974;BME280;59840;52.122;5.404;2023-07-31T11:03:00;100679.06;;;17.76;100.00
71974;BME280;59840;52.122;5.404;2023-07-31T11:06:02;100684.63;;;17.80;100.00
71974;BME280;59840;52.122;5.404;2023-07-31T11:08:55;100685.91;;;17.82;100.00
71974;BME280;59840;52.122;5.404;2023-07-31T11:11:24;100690.16;;;17.83;100.00
71974;BME280;59840;52.122;5.404;2023-07-31T11:13:54;100689.28;;;17.88;100.00
71974;BME280;59840;52.122;5.404;2023-07-31T11:16:24;100687.38;;;17.88;100.00
71974;BME280;59840;52.122;5.404;2023-07-31T11:18:54;100685.50;;;17.89;100.00
71974;BME280;59840;52.122;5.404;2023-07-31T11:21:36;100685.81;;;17.87;100.00
71974;BME280;59840;52.122;5.404;2023-07-31T11:24:12;100675.63;;;17.89;100.00
71974;BME280;59840;52.122;5.404;2023-07-31T11:26:48;100684.22;;;17.86;100.00
71974;BME280;59840;52.122;5.404;2023-07-31T11:29:15;100673.06;;;17.84;100.00
71974;BME280;59840;52.122;5.404;2023-07-31T11:31:43;100680.25;;;17.84;100.00
71974;BME280;59840;52.122;5.404;2023-07-31T11:34:09;100674.63;;;17.85;100.00
71974;BME280;59840;52.122;5.404;2023-07-31T11:36:38;100673.84;;;17.85;100.00
71974;BME280;59840;52.122;5.404;2023-07-31T11:39:21;100676.50;;;17.85;100.00
71974;BME280;59840;52.122;5.404;2023-07-31T11:41:48;100676.00;;;17.83;100.00
71974;BME280;59840;52.122;5.404;2023-07-31T11:44:15;100670.69;;;17.83;100.00
71974;BME280;59840;52.122;5.404;2023-07-31T11:46:56;100676.81;;;17.83;100.00
71974;BME280;59840;52.122;5.404;2023-07-31T11:49:23;100676.81;;;17.83;100.00
71974;BME280;59840;52.122;5.404;2023-07-31T11:51:50;100662.66;;;17.83;100.00
71974;BME280;59840;52.122;5.404;2023-07-31T11:54:17;100662.66;;;17.83;100.00
71974;BME280;59840;52.122;5.404;2023-07-31T11:56:44;100669.38;;;17.80;100.00
71974;BME280;59840;52.122;5.404;2023-07-31T11:59:11;100660.88;;;17.78;100.00
71974;BME280;59840;52.122;5.404;2023-07-31T12:01:41;100660.97;;;17.73;100.00
71974;BME280;59840;52.122;5.404;2023-07-31T12:04:20;100663.94;;;17.71;100.00
71974;BME280;59840;52.122;5.404;2023-07-31T12:06:52;100666.31;;;17.73;100.00
71974;BME280;59840;52.122;5.404;2023-07-31T12:09:23;100671.06;;;17.76;100.00
71974;BME280;59840;52.122;5.404;2023-07-31T12:11:51;100670.47;;;17.79;100.00
71974;BME280;59840;52.122;5.404;2023-07-31T12:14:26;100667.50;;;17.81;100.00
71974;BME280;59840;52.122;5.404;2023-07-31T12:16:56;100669.78;;;17.87;100.00
71974;BME280;59840;52.122;5.404;2023-07-31T12:19:24;100671.28;;;17.93;100.00
71974;BME280;59840;52.122;5.404;2023-07-31T12:21:58;100672.06;;;17.94;100.00
71974;BME280;59840;52.122;5.404;2023-07-31T12:24:26;100653.09;;;17.95;100.00
71974;BME280;59840;52.122;5.404;2023-07-31T12:26:53;100657.84;;;17.98;100.00
71974;BME280;59840;52.122;5.404;2023-07-31T12:29:24;100654.38;;;17.98;100.00
71974;BME280;59840;52.122;5.404;2023-07-31T12:31:59;100648.44;;;18.01;100.00
71974;BME280;59840;52.122;5.404;2023-07-31T12:34:26;100640.09;;;18.02;100.00
71974;BME280;59840;52.122;5.404;2023-07-31T12:36:58;100628.34;;;18.03;100.00
71974;BME280;59840;52.122;5.404;2023-07-31T12:39:28;100640.44;;;18.01;100.00
71974;BME280;59840;52.122;5.404;2023-07-31T12:41:55;100630.94;;;17.95;100.00
71974;BME280;59840;52.122;5.404;2023-07-31T12:44:21;100633.00;;;17.98;100.00
71974;BME280;59840;52.122;5.404;2023-07-31T12:46:48;100641.22;;;18.01;100.00
71974;BME280;59840;52.122;5.404;2023-07-31T12:49:18;100632.88;;;18.03;100.00
71974;BME280;59840;52.122;5.404;2023-07-31T12:51:45;100636.84;;;18.05;100.00
71974;BME280;59840;52.122;5.404;2023-07-31T12:54:14;100637.44;;;18.02;100.00
71974;BME280;59840;52.122;5.404;2023-07-31T12:56:42;100636.34;;;18.03;100.00